Philo, California
Current Conditions -  °F | °C
As of 7:45 AM on Saturday 25 Oct 2014 (Local Time) from KUKI Reporting Station
Light Rain Light Rain  
Wind Chill: 57°   Ceiling: 2500
Heat Index: 57°   Visibility: 8mi
Dew Point: 54°   Wind: 8mph
Humidity: 89%   Direction: 170°S
Pressure: 29.89"   Gusts: NA
Location:  39.07°N, 123.45°W
Report Text: KUKI 251445Z AUTO 17007KT 8SM -RA FEW017 BKN025 OVC033 14/12 A2989 RMK AO2 RAB06 P0002 T01390122
Loading
Personal Weather Stations






























Interactive Weather Map
Tropical Storm Tracking
New forecast layout! Learn more

10-Day Weather Forecast

Advertisements
Track Severe Weather on mobile